createdAt,value
2023-04-02T00:01:01.817Z,47.08
2023-04-02T00:03:42.396Z,45.75
2023-04-02T00:06:33.614Z,46.76
2023-04-02T00:09:05.700Z,46.61
2023-04-02T00:11:35.321Z,46.75
2023-04-02T00:14:06.692Z,47.17
2023-04-02T00:16:33.434Z,47.31
2023-04-02T00:19:04.385Z,47.11
2023-04-02T00:21:33.020Z,47.30
2023-04-02T00:24:01.228Z,47.22
2023-04-02T00:26:35.076Z,46.35
2023-04-02T00:29:04.199Z,47.03
2023-04-02T00:31:31.326Z,47.18
2023-04-02T00:33:59.760Z,47.13
2023-04-02T00:36:30.218Z,46.67
2023-04-02T00:38:58.934Z,47.22
2023-04-02T00:41:29.837Z,46.75
2023-04-02T00:43:58.335Z,46.50
2023-04-02T00:46:38.126Z,45.64
2023-04-02T00:49:11.354Z,45.91
2023-04-02T00:52:07.735Z,45.99
2023-04-02T00:55:01.063Z,46.11
2023-04-02T00:57:28.295Z,46.10
2023-04-02T01:00:22.694Z,45.74
2023-04-02T01:03:17.061Z,44.76
2023-04-02T01:05:45.909Z,45.49
2023-04-02T01:08:16.948Z,45.34
2023-04-02T01:11:09.742Z,44.77
2023-04-02T01:13:40.413Z,45.19
2023-04-02T01:16:29.967Z,45.11
2023-04-02T01:19:02.580Z,45.32
2023-04-02T01:21:42.536Z,45.16
2023-04-02T01:24:13.704Z,45.25
2023-04-02T01:27:04.716Z,44.61
2023-04-02T01:29:33.887Z,45.65
2023-04-02T01:32:03.798Z,45.44
2023-04-02T01:34:30.971Z,45.19
2023-04-02T01:37:11.385Z,45.05
2023-04-02T01:39:56.281Z,45.08
2023-04-02T01:42:32.123Z,44.57
2023-04-02T01:45:09.724Z,44.81
2023-04-02T01:47:37.933Z,44.75
2023-04-02T01:50:24.076Z,44.89
2023-04-02T01:52:52.684Z,44.81
2023-04-02T01:55:28.385Z,44.59
2023-04-02T01:57:55.274Z,44.75
2023-04-02T02:00:22.734Z,45.00
2023-04-02T02:02:53.882Z,44.78
2023-04-02T02:05:23.171Z,44.67
2023-04-02T02:07:51.698Z,44.53
2023-04-02T02:10:24.454Z,44.38
2023-04-02T02:12:51.369Z,44.81
2023-04-02T02:15:20.760Z,44.54
2023-04-02T02:17:48.171Z,44.37
2023-04-02T02:20:15.010Z,44.11
2023-04-02T02:22:46.655Z,44.39
2023-04-02T02:25:19.074Z,44.17
2023-04-02T02:27:46.028Z,44.36
2023-04-02T02:30:29.234Z,43.00
2023-04-02T02:33:31.133Z,43.00
2023-04-02T02:36:25.059Z,43.34
2023-04-02T02:38:54.504Z,43.18
2023-04-02T02:41:37.732Z,43.38
2023-04-02T02:44:11.063Z,43.38
2023-04-02T02:46:41.631Z,43.60
2023-04-02T02:49:15.635Z,43.20
2023-04-02T02:51:47.323Z,42.92
2023-04-02T02:54:19.824Z,42.89
2023-04-02T02:56:51.361Z,42.96
2023-04-02T02:59:19.183Z,42.48
2023-04-02T03:01:47.401Z,42.79
2023-04-02T03:04:20.974Z,42.69
2023-04-02T03:06:50.755Z,42.82
2023-04-02T03:09:23.966Z,41.98
2023-04-02T03:12:03.928Z,42.42
2023-04-02T03:14:34.050Z,42.27
2023-04-02T03:17:15.276Z,42.29
2023-04-02T03:19:47.412Z,42.50
2023-04-02T03:22:41.483Z,41.08
2023-04-02T03:25:25.441Z,41.46
2023-04-02T03:27:59.655Z,42.13
2023-04-02T03:30:39.164Z,42.30
2023-04-02T03:33:13.314Z,41.83
2023-04-02T03:36:14.073Z,41.48
2023-04-02T03:38:43.892Z,41.88
2023-04-02T03:41:19.963Z,41.91
2023-04-02T03:43:48.056Z,42.28
2023-04-02T03:46:27.703Z,41.77
2023-04-02T03:48:59.264Z,42.13
2023-04-02T03:51:40.555Z,42.27
2023-04-02T03:54:12.942Z,41.95
2023-04-02T03:56:39.959Z,41.93
2023-04-02T03:59:31.928Z,41.75
2023-04-02T04:02:02.683Z,42.14
2023-04-02T04:04:31.826Z,42.10
2023-04-02T04:06:58.714Z,42.42
2023-04-02T04:09:37.956Z,42.33
2023-04-02T04:12:36.118Z,41.93
2023-04-02T04:15:10.032Z,41.58
2023-04-02T04:17:54.060Z,41.61
2023-04-02T04:20:30.936Z,41.60
2023-04-02T04:23:08.895Z,41.58
2023-04-02T04:25:37.206Z,41.94
2023-04-02T04:28:24.626Z,42.03
2023-04-02T04:31:04.109Z,41.92
2023-04-02T04:33:43.038Z,41.49
2023-04-02T04:36:28.770Z,41.86
2023-04-02T04:39:07.475Z,41.72
2023-04-02T04:41:38.017Z,41.70
2023-04-02T04:44:35.367Z,41.67
2023-04-02T04:47:15.980Z,41.46
2023-04-02T04:49:45.800Z,41.78
2023-04-02T04:52:33.746Z,41.57
2023-04-02T04:55:00.998Z,41.80
2023-04-02T04:57:40.167Z,41.80
2023-04-02T05:00:20.707Z,41.88
2023-04-02T05:02:52.270Z,41.49
2023-04-02T05:05:25.394Z,41.71
2023-04-02T05:07:59.837Z,41.34
2023-04-02T05:10:47.363Z,41.45
2023-04-02T05:13:19.920Z,41.62
2023-04-02T05:15:53.308Z,41.95
2023-04-02T05:18:27.513Z,41.74
2023-04-02T05:21:13.136Z,41.49
2023-04-02T05:24:10.433Z,41.50
2023-04-02T05:26:46.003Z,41.85
2023-04-02T05:29:20.765Z,41.79
2023-04-02T05:32:04.559Z,41.70
2023-04-02T05:34:34.402Z,41.47
2023-04-02T05:37:02.210Z,41.51
2023-04-02T05:39:30.167Z,41.89
2023-04-02T05:42:08.439Z,41.23
2023-04-02T05:45:05.081Z,41.16
2023-04-02T05:47:32.722Z,41.34
2023-04-02T05:50:13.705Z,41.41
2023-04-02T05:52:50.297Z,41.30
2023-04-02T05:55:16.842Z,40.91
2023-04-02T05:58:07.053Z,41.16
2023-04-02T06:00:37.353Z,40.83
2023-04-02T06:03:08.251Z,40.88
2023-04-02T06:05:40.066Z,40.45
2023-04-02T06:08:08.586Z,39.54
2023-04-02T06:10:38.057Z,40.81
2023-04-02T06:13:08.453Z,40.71
2023-04-02T06:15:42.008Z,41.19
2023-04-02T06:18:27.986Z,40.68
2023-04-02T06:20:56.259Z,41.09
2023-04-02T06:23:37.181Z,41.23
2023-04-02T06:26:19.831Z,40.19
2023-04-02T06:28:49.593Z,40.03
2023-04-02T06:31:41.261Z,40.31
2023-04-02T06:34:21.313Z,40.31
2023-04-02T06:36:58.644Z,40.02
2023-04-02T06:39:27.163Z,39.68
2023-04-02T06:42:14.999Z,39.75
2023-04-02T06:45:02.507Z,39.89
2023-04-02T06:47:48.881Z,39.22
2023-04-02T06:50:40.895Z,38.15
2023-04-02T06:53:11.682Z,38.35
2023-04-02T06:55:48.040Z,38.32
2023-04-02T06:58:19.956Z,36.01
2023-04-02T07:00:50.724Z,35.66
2023-04-02T07:03:32.218Z,34.54
2023-04-02T07:06:04.883Z,33.25
2023-04-02T07:08:33.460Z,32.29
2023-04-02T07:11:00.752Z,31.67
2023-04-02T07:13:28.089Z,29.44
2023-04-02T07:15:55.617Z,28.02
2023-04-02T07:18:33.967Z,26.64
2023-04-02T07:21:06.870Z,22.71
2023-04-02T07:23:33.667Z,25.26
2023-04-02T07:26:02.118Z,24.79
2023-04-02T07:28:29.240Z,24.61
2023-04-02T07:30:56.490Z,26.62
2023-04-02T07:33:25.441Z,26.82
2023-04-02T07:35:54.062Z,28.25
2023-04-02T07:38:20.757Z,29.70
2023-04-02T07:40:47.639Z,30.34
2023-04-02T07:43:14.237Z,30.58
2023-04-02T07:45:40.905Z,31.24
2023-04-02T07:48:12.856Z,31.64
2023-04-02T07:50:39.397Z,32.29
2023-04-02T07:53:07.234Z,32.35
2023-04-02T07:55:34.210Z,30.88
2023-04-02T07:58:00.896Z,29.99
2023-04-02T08:00:29.145Z,30.07
2023-04-02T08:02:56.370Z,30.54
2023-04-02T08:05:23.158Z,31.42
2023-04-02T08:07:54.534Z,31.73
2023-04-02T08:10:21.550Z,31.95
2023-04-02T08:12:48.531Z,32.15
2023-04-02T08:15:16.071Z,32.56
2023-04-02T08:17:43.406Z,32.27
2023-04-02T08:20:19.269Z,32.11
2023-04-02T08:22:46.808Z,33.04
2023-04-02T08:25:13.446Z,33.08
2023-04-02T08:27:40.028Z,32.83
2023-04-02T08:30:07.874Z,32.96
2023-04-02T08:32:34.752Z,33.37
2023-04-02T08:35:01.547Z,33.66
2023-04-02T08:37:28.170Z,33.11
2023-04-02T08:39:54.772Z,32.66
2023-04-02T08:42:42.829Z,32.33
2023-04-02T08:45:46.801Z,32.34
2023-04-02T08:48:15.432Z,32.26
2023-04-02T08:50:43.792Z,32.65
2023-04-02T08:53:17.606Z,32.44
2023-04-02T08:55:55.804Z,32.65
2023-04-02T08:58:32.996Z,32.60
2023-04-02T09:01:02.312Z,32.41
2023-04-02T09:03:32.455Z,32.49
2023-04-02T09:05:59.825Z,32.45
2023-04-02T09:08:27.450Z,32.24
2023-04-02T09:11:07.370Z,32.34
2023-04-02T09:13:37.513Z,33.07
2023-04-02T09:16:09.068Z,33.00
2023-04-02T09:18:36.432Z,32.36
2023-04-02T09:21:18.520Z,33.07
2023-04-02T09:23:45.091Z,33.40
2023-04-02T09:26:24.099Z,33.03
2023-04-02T09:28:51.845Z,32.66
2023-04-02T09:31:48.751Z,32.06
2023-04-02T09:34:32.683Z,29.12
2023-04-02T09:37:15.323Z,28.51
2023-04-02T09:39:41.964Z,28.45
2023-04-02T09:42:28.219Z,28.18
2023-04-02T09:45:13.133Z,28.45
2023-04-02T09:47:42.473Z,28.24
2023-04-02T09:50:21.429Z,27.79
2023-04-02T09:52:48.779Z,27.65
2023-04-02T09:55:18.659Z,28.36
2023-04-02T09:57:46.785Z,27.57
2023-04-02T10:00:31.951Z,26.38
2023-04-02T10:03:05.637Z,26.03
2023-04-02T10:05:40.678Z,26.54
2023-04-02T10:08:19.513Z,26.64
2023-04-02T10:10:49.907Z,26.23
2023-04-02T10:13:34.264Z,26.20
2023-04-02T10:16:04.611Z,23.92
2023-04-02T10:18:41.619Z,25.09
2023-04-02T10:21:11.207Z,26.29
2023-04-02T10:23:37.753Z,26.39
2023-04-02T10:26:09.935Z,26.34
2023-04-02T10:28:46.081Z,25.08
2023-04-02T10:31:22.581Z,24.78
2023-04-02T10:33:52.238Z,24.00
2023-04-02T10:36:40.497Z,24.46
2023-04-02T10:39:19.433Z,24.08
2023-04-02T10:42:10.493Z,25.31
2023-04-02T10:45:10.913Z,25.38
2023-04-02T10:47:48.510Z,25.20
2023-04-02T10:50:29.563Z,25.45
2023-04-02T10:53:12.069Z,26.04
2023-04-02T10:55:43.846Z,25.50
2023-04-02T10:58:38.572Z,25.90
2023-04-02T11:01:16.998Z,26.43
2023-04-02T11:03:47.709Z,25.75
2023-04-02T11:06:20.532Z,24.84
2023-04-02T11:08:49.662Z,24.67
2023-04-02T11:11:38.436Z,24.68
2023-04-02T11:14:14.848Z,24.61
2023-04-02T11:16:44.573Z,24.84
2023-04-02T11:19:14.592Z,24.74
2023-04-02T11:21:55.502Z,25.12
2023-04-02T11:24:33.953Z,25.28
2023-04-02T11:27:14.342Z,25.39
2023-04-02T11:29:48.146Z,25.91
2023-04-02T11:32:20.745Z,25.49
2023-04-02T11:34:49.548Z,25.42
2023-04-02T11:37:41.135Z,25.76
2023-04-02T11:40:07.770Z,26.42
2023-04-02T11:42:36.142Z,26.41
2023-04-02T11:45:21.350Z,26.61
2023-04-02T11:48:17.301Z,26.28
2023-04-02T11:50:45.365Z,27.26
2023-04-02T11:53:11.939Z,27.08
2023-04-02T11:56:05.212Z,26.84
2023-04-02T11:58:49.498Z,27.03
2023-04-02T12:01:25.040Z,27.45
2023-04-02T12:04:28.226Z,27.27
2023-04-02T12:07:34.919Z,26.30
2023-04-02T12:10:15.459Z,26.63
2023-04-02T12:12:43.140Z,26.61
2023-04-02T12:15:31.565Z,25.37
2023-04-02T12:18:24.589Z,26.10
2023-04-02T12:20:53.478Z,25.59
2023-04-02T12:23:23.015Z,25.90
2023-04-02T12:26:01.714Z,26.29
2023-04-02T12:28:29.979Z,25.55
2023-04-02T12:31:13.371Z,26.01
2023-04-02T12:33:41.192Z,26.34
2023-04-02T12:36:19.356Z,26.17
2023-04-02T12:38:52.653Z,26.17
2023-04-02T12:41:24.965Z,26.24
2023-04-02T12:44:15.552Z,26.31
2023-04-02T12:46:42.594Z,27.09
2023-04-02T12:49:25.253Z,25.74
2023-04-02T12:51:52.144Z,26.51
2023-04-02T12:54:20.471Z,26.40
2023-04-02T12:56:48.537Z,26.90
2023-04-02T12:59:29.865Z,25.88
2023-04-02T13:01:59.080Z,25.34
2023-04-02T13:04:26.458Z,24.77
2023-04-02T13:06:56.351Z,24.84
2023-04-02T13:09:52.780Z,24.74
2023-04-02T13:12:28.207Z,23.17
2023-04-02T13:14:59.557Z,23.77
2023-04-02T13:17:44.427Z,24.13
2023-04-02T13:20:38.823Z,22.87
2023-04-02T13:23:30.304Z,24.73
2023-04-02T13:26:01.260Z,24.52
2023-04-02T13:28:28.935Z,23.83
2023-04-02T13:30:55.534Z,24.35
2023-04-02T13:33:22.055Z,23.45
2023-04-02T13:35:48.670Z,23.42
2023-04-02T13:38:15.336Z,24.14
2023-04-02T13:40:41.937Z,24.16
2023-04-02T13:43:17.298Z,23.73
2023-04-02T13:45:45.963Z,24.61
2023-04-02T13:48:15.977Z,25.20
2023-04-02T13:50:42.724Z,24.55
2023-04-02T13:53:16.164Z,23.96
2023-04-02T13:55:42.910Z,23.81
2023-04-02T13:58:10.650Z,24.08
2023-04-02T14:00:37.898Z,24.34
2023-04-02T14:03:08.625Z,23.89
2023-04-02T14:05:44.591Z,24.01
2023-04-02T14:08:56.983Z,23.06
2023-04-02T14:11:28.665Z,23.95
2023-04-02T14:14:36.154Z,24.45
2023-04-02T14:17:25.899Z,24.22
2023-04-02T14:20:03.176Z,25.25
2023-04-02T14:22:39.405Z,25.33
2023-04-02T14:25:23.138Z,24.73
2023-04-02T14:27:58.608Z,24.71
2023-04-02T14:30:49.931Z,25.05
2023-04-02T14:33:34.993Z,25.15
2023-04-02T14:36:24.048Z,24.65
2023-04-02T14:39:12.788Z,24.70
2023-04-02T14:41:52.554Z,24.78
2023-04-02T14:44:22.757Z,24.42
2023-04-02T14:46:50.045Z,24.37
2023-04-02T14:49:24.411Z,24.30
2023-04-02T14:52:00.747Z,24.88
2023-04-02T14:54:33.525Z,25.08
2023-04-02T14:57:16.953Z,25.60
2023-04-02T15:00:07.378Z,25.48
2023-04-02T15:02:42.555Z,25.54
2023-04-02T15:05:14.471Z,25.87
2023-04-02T15:07:45.857Z,26.17
2023-04-02T15:10:32.206Z,25.84
2023-04-02T15:13:00.661Z,26.14
2023-04-02T15:15:40.629Z,26.13
2023-04-02T15:18:16.310Z,26.23
2023-04-02T15:21:03.262Z,26.37
2023-04-02T15:23:38.321Z,26.70
2023-04-02T15:26:12.835Z,26.74
2023-04-02T15:28:47.684Z,26.89
2023-04-02T15:31:14.966Z,26.76
2023-04-02T15:33:46.028Z,26.85
2023-04-02T15:36:38.363Z,27.00
2023-04-02T15:39:12.840Z,26.87
2023-04-02T15:41:56.166Z,27.27
2023-04-02T15:44:23.698Z,27.61
2023-04-02T15:47:15.475Z,27.36
2023-04-02T15:49:47.377Z,27.60
2023-04-02T15:52:40.105Z,27.60
2023-04-02T15:55:28.679Z,27.37
2023-04-02T15:58:07.276Z,27.63
2023-04-02T16:00:44.899Z,27.64
2023-04-02T16:03:34.134Z,28.07
2023-04-02T16:06:21.115Z,28.20
2023-04-02T16:08:57.331Z,28.00
2023-04-02T16:11:25.811Z,28.28
2023-04-02T16:13:58.399Z,28.25
2023-04-02T16:16:36.081Z,28.03
2023-04-02T16:19:16.001Z,27.98
2023-04-02T16:21:50.214Z,27.69
2023-04-02T16:24:16.771Z,28.13
2023-04-02T16:27:18.525Z,27.54
2023-04-02T16:29:58.185Z,28.58
2023-04-02T16:32:30.345Z,28.84
2023-04-02T16:35:41.262Z,28.58
2023-04-02T16:38:19.108Z,29.19
2023-04-02T16:41:07.045Z,28.66
2023-04-02T16:43:48.049Z,28.76
2023-04-02T16:47:02.548Z,28.10
2023-04-02T16:49:45.362Z,28.19
2023-04-02T16:52:32.913Z,28.39
2023-04-02T16:55:30.208Z,28.24
2023-04-02T16:58:19.432Z,28.46
2023-04-02T17:00:53.362Z,28.69
2023-04-02T17:03:41.954Z,28.94
2023-04-02T17:06:29.642Z,28.68
2023-04-02T17:09:27.311Z,28.64
2023-04-02T17:12:17.555Z,28.79
2023-04-02T17:14:52.318Z,29.51
2023-04-02T17:17:20.567Z,29.23
2023-04-02T17:19:48.817Z,29.72
2023-04-02T17:22:21.320Z,29.26
2023-04-02T17:24:53.835Z,29.82
2023-04-02T17:27:26.035Z,29.35
2023-04-02T17:29:55.950Z,29.76
2023-04-02T17:32:32.452Z,29.85
2023-04-02T17:35:18.152Z,30.23
2023-04-02T17:37:52.727Z,29.84
2023-04-02T17:40:22.606Z,30.77
2023-04-02T17:43:15.680Z,30.28
2023-04-02T17:45:44.984Z,30.42
2023-04-02T17:48:43.644Z,30.65
2023-04-02T17:51:30.189Z,30.44
2023-04-02T17:54:05.981Z,31.15
2023-04-02T17:57:00.613Z,30.70
2023-04-02T17:59:58.231Z,31.41
2023-04-02T18:02:58.354Z,31.45
2023-04-02T18:05:32.779Z,31.64
2023-04-02T18:08:15.834Z,32.00
2023-04-02T18:11:05.061Z,32.26
2023-04-02T18:13:41.110Z,32.45
2023-04-02T18:16:13.785Z,32.72
2023-04-02T18:19:03.577Z,32.18
2023-04-02T18:21:47.082Z,32.70
2023-04-02T18:24:48.828Z,32.70
2023-04-02T18:27:18.217Z,32.50
2023-04-02T18:30:24.169Z,32.72
2023-04-02T18:33:08.229Z,32.76
2023-04-02T18:35:59.963Z,33.19
2023-04-02T18:39:00.128Z,32.75
2023-04-02T18:41:44.540Z,32.96
2023-04-02T18:44:32.484Z,33.25
2023-04-02T18:47:23.587Z,33.26
2023-04-02T18:50:13.285Z,33.32
2023-04-02T18:52:41.458Z,33.50
2023-04-02T18:55:15.639Z,33.94
2023-04-02T18:57:42.964Z,33.73
2023-04-02T19:00:19.572Z,33.91
2023-04-02T19:03:04.134Z,34.09
2023-04-02T19:05:51.772Z,33.80
2023-04-02T19:08:27.271Z,33.71
2023-04-02T19:10:59.235Z,33.90
2023-04-02T19:13:26.317Z,34.39
2023-04-02T19:15:58.666Z,34.42
2023-04-02T19:18:46.988Z,34.51
2023-04-02T19:21:32.235Z,34.48
2023-04-02T19:24:14.057Z,34.39
2023-04-02T19:26:54.383Z,34.61
2023-04-02T19:29:27.888Z,34.40
2023-04-02T19:32:16.897Z,34.22
2023-04-02T19:34:52.507Z,34.21
2023-04-02T19:37:30.050Z,34.63
2023-04-02T19:40:23.709Z,34.40
2023-04-02T19:42:51.969Z,34.82
2023-04-02T19:45:29.183Z,35.25
2023-04-02T19:47:56.765Z,35.21
2023-04-02T19:50:23.405Z,35.19
2023-04-02T19:52:50.094Z,35.28
2023-04-02T19:55:16.607Z,35.65
2023-04-02T19:57:43.260Z,35.33
2023-04-02T20:00:14.005Z,35.88
2023-04-02T20:02:40.582Z,35.64
2023-04-02T20:05:07.606Z,35.67
2023-04-02T20:07:34.122Z,35.75
2023-04-02T20:10:00.626Z,35.70
2023-04-02T20:12:27.176Z,35.69
2023-04-02T20:14:53.700Z,35.90
2023-04-02T20:17:20.261Z,35.73
2023-04-02T20:19:46.798Z,35.61
2023-04-02T20:22:13.452Z,35.65
2023-04-02T20:24:41.023Z,35.60
2023-04-02T20:27:07.618Z,35.91
2023-04-02T20:29:34.086Z,35.91
2023-04-02T20:32:00.637Z,36.17
2023-04-02T20:34:27.193Z,35.47
2023-04-02T20:36:53.876Z,35.97
2023-04-02T20:39:21.424Z,36.17
2023-04-02T20:41:48.191Z,36.15
2023-04-02T20:44:14.690Z,36.21
2023-04-02T20:46:41.548Z,36.19
2023-04-02T20:49:08.152Z,36.23
2023-04-02T20:51:34.631Z,36.35
2023-04-02T20:54:01.364Z,36.43
2023-04-02T20:56:27.941Z,35.84
2023-04-02T20:58:54.502Z,36.00
2023-04-02T21:01:26.492Z,36.23
2023-04-02T21:03:57.747Z,36.34
2023-04-02T21:06:26.302Z,36.01
2023-04-02T21:08:53.167Z,36.20
2023-04-02T21:11:20.055Z,36.59
2023-04-02T21:13:46.661Z,35.89
2023-04-02T21:16:16.123Z,36.27
2023-04-02T21:18:43.360Z,36.50
2023-04-02T21:21:13.608Z,36.41
2023-04-02T21:23:41.061Z,36.92
2023-04-02T21:26:09.885Z,36.08
2023-04-02T21:28:36.834Z,36.51
2023-04-02T21:31:05.863Z,37.11
2023-04-02T21:33:37.099Z,36.79
2023-04-02T21:36:14.559Z,36.96
2023-04-02T21:38:45.671Z,37.02
2023-04-02T21:41:19.302Z,36.37
2023-04-02T21:43:48.649Z,36.85
2023-04-02T21:46:16.512Z,36.74
2023-04-02T21:48:43.443Z,36.56
2023-04-02T21:51:15.668Z,36.66
2023-04-02T21:53:42.705Z,37.11
2023-04-02T21:56:12.946Z,37.27
2023-04-02T21:58:39.536Z,36.64
2023-04-02T22:01:11.198Z,37.29
2023-04-02T22:03:41.126Z,37.62
2023-04-02T22:06:12.475Z,37.35
2023-04-02T22:08:39.837Z,36.66
2023-04-02T22:11:14.408Z,37.01
2023-04-02T22:13:41.746Z,36.54
2023-04-02T22:16:13.898Z,37.23
2023-04-02T22:18:40.928Z,37.62
2023-04-02T22:21:08.149Z,37.14
2023-04-02T22:23:35.529Z,36.82
2023-04-02T22:26:02.341Z,37.68
2023-04-02T22:28:29.175Z,37.14
2023-04-02T22:30:56.305Z,37.49
2023-04-02T22:33:22.824Z,36.90
2023-04-02T22:35:51.711Z,37.90
2023-04-02T22:38:19.033Z,37.75
2023-04-02T22:40:45.900Z,38.17
2023-04-02T22:43:12.477Z,38.57
2023-04-02T22:45:39.019Z,37.88
2023-04-02T22:48:05.593Z,37.87
2023-04-02T22:50:32.118Z,38.06
2023-04-02T22:52:58.676Z,37.45
2023-04-02T22:55:25.374Z,37.30
2023-04-02T22:57:51.843Z,37.59
2023-04-02T23:00:18.758Z,37.48
2023-04-02T23:02:45.711Z,38.40
2023-04-02T23:05:12.515Z,37.78
2023-04-02T23:07:39.082Z,38.58
2023-04-02T23:10:06.026Z,37.57
2023-04-02T23:12:32.528Z,38.00
2023-04-02T23:14:59.737Z,37.90
2023-04-02T23:17:26.497Z,37.68
2023-04-02T23:19:53.002Z,37.79
2023-04-02T23:22:19.498Z,37.33
2023-04-02T23:24:45.985Z,38.02
2023-04-02T23:27:12.482Z,37.94
2023-04-02T23:29:38.980Z,37.39
2023-04-02T23:32:05.871Z,37.81
2023-04-02T23:34:32.357Z,37.42
2023-04-02T23:36:58.856Z,37.71
2023-04-02T23:39:25.356Z,38.01
2023-04-02T23:41:51.876Z,37.75
2023-04-02T23:44:18.457Z,37.35
2023-04-02T23:46:45.080Z,37.87
2023-04-02T23:49:13.072Z,37.30
2023-04-02T23:51:40.658Z,37.32
2023-04-02T23:54:07.624Z,38.14
2023-04-02T23:56:34.142Z,37.79
2023-04-02T23:59:00.808Z,37.41
